createdAt,value
2018-02-25T00:01:57.698Z,16.48
2018-02-25T00:04:25.959Z,17.33
2018-02-25T00:06:53.644Z,16.90
2018-02-25T00:09:21.907Z,17.77
2018-02-25T00:11:50.183Z,17.58
2018-02-25T00:14:17.756Z,18.80
2018-02-25T00:16:46.023Z,13.57
2018-02-25T00:19:14.291Z,16.20
2018-02-25T00:21:41.896Z,16.55
2018-02-25T00:24:09.395Z,14.45
2018-02-25T00:26:36.912Z,13.40
2018-02-25T00:29:04.411Z,19.17
2018-02-25T00:31:31.919Z,13.50
2018-02-25T00:33:59.419Z,14.77
2018-02-25T00:36:26.936Z,17.87
2018-02-25T00:38:54.727Z,13.70
2018-02-25T00:41:22.223Z,20.90
2018-02-25T00:43:51.241Z,16.70
2018-02-25T00:46:19.550Z,18.05
2018-02-25T00:48:47.071Z,20.25
2018-02-25T00:51:15.333Z,15.77
2018-02-25T00:53:42.938Z,21.73
2018-02-25T00:56:10.449Z,17.80
2018-02-25T00:58:37.952Z,21.73
2018-02-25T01:01:05.448Z,22.25
2018-02-25T01:03:32.960Z,23.92
2018-02-25T01:06:00.477Z,21.12
2018-02-25T01:08:27.971Z,18.98
2018-02-25T01:10:55.473Z,20.55
2018-02-25T01:13:22.971Z,19.70
2018-02-25T01:15:51.316Z,19.83
2018-02-25T01:18:18.815Z,21.12
2018-02-25T01:20:47.078Z,20.42
2018-02-25T01:23:15.338Z,18.85
2018-02-25T01:25:42.859Z,16.25
2018-02-25T01:28:10.407Z,23.58
2018-02-25T01:30:37.919Z,21.50
2018-02-25T01:33:06.218Z,20.77
2018-02-25T01:35:34.483Z,21.55
2018-02-25T01:38:02.759Z,15.35
2018-02-25T01:40:31.026Z,22.50
2018-02-25T01:42:58.543Z,16.98
2018-02-25T01:45:26.039Z,17.70
2018-02-25T01:47:53.552Z,20.25
2018-02-25T01:50:21.047Z,17.58
2018-02-25T01:52:48.548Z,18.15
2018-02-25T01:55:16.059Z,17.33
2018-02-25T01:57:43.552Z,13.35
2018-02-25T02:00:11.818Z,16.02
2018-02-25T02:02:40.092Z,13.15
2018-02-25T02:05:08.367Z,13.02
2018-02-25T02:07:35.867Z,14.25
2018-02-25T02:10:03.372Z,16.30
2018-02-25T02:12:30.884Z,22.52
2018-02-25T02:14:58.390Z,15.70
2018-02-25T02:17:25.938Z,19.60
2018-02-25T02:19:53.438Z,20.25
2018-02-25T02:22:21.703Z,19.00
2018-02-25T02:24:49.968Z,20.50
2018-02-25T02:27:17.469Z,23.83
2018-02-25T02:29:44.967Z,22.15
2018-02-25T02:32:12.488Z,18.77
2018-02-25T02:34:40.027Z,26.77
2018-02-25T02:37:08.301Z,18.48
2018-02-25T02:39:36.583Z,20.90
2018-02-25T02:42:04.848Z,21.37
2018-02-25T02:44:33.115Z,21.35
2018-02-25T02:47:01.400Z,18.45
2018-02-25T02:49:29.660Z,19.42
2018-02-25T02:51:57.162Z,18.48
2018-02-25T02:54:24.675Z,16.77
2018-02-25T02:56:52.199Z,24.98
2018-02-25T02:59:19.712Z,21.62
2018-02-25T03:01:47.982Z,19.02
2018-02-25T03:04:16.270Z,18.20
2018-02-25T03:06:44.544Z,20.05
2018-02-25T03:09:12.818Z,15.63
2018-02-25T03:11:41.082Z,18.50
2018-02-25T03:14:09.351Z,22.92
2018-02-25T03:16:36.871Z,25.52
2018-02-25T03:19:04.372Z,18.98
2018-02-25T03:21:31.872Z,20.75
2018-02-25T03:23:59.371Z,16.37
2018-02-25T03:26:26.867Z,21.08
2018-02-25T03:28:55.139Z,17.60
2018-02-25T03:31:23.404Z,17.67
2018-02-25T03:33:51.675Z,19.20
2018-02-25T03:36:19.247Z,16.62
2018-02-25T03:38:47.537Z,19.52
2018-02-25T03:41:15.055Z,17.83
2018-02-25T03:43:42.570Z,19.17
2018-02-25T03:46:10.079Z,17.87
2018-02-25T03:48:37.575Z,19.90
2018-02-25T03:51:05.098Z,27.73
2018-02-25T03:53:32.632Z,19.37
2018-02-25T03:56:00.147Z,18.37
2018-02-25T03:58:27.677Z,18.65
2018-02-25T04:00:55.166Z,17.95
2018-02-25T04:03:22.672Z,22.48
2018-02-25T04:05:50.178Z,18.20
2018-02-25T04:08:17.687Z,20.40
2018-02-25T04:10:45.187Z,16.83
2018-02-25T04:13:13.471Z,16.77
2018-02-25T04:15:41.747Z,19.45
2018-02-25T04:18:10.003Z,16.87
2018-02-25T04:20:38.271Z,17.98
2018-02-25T04:23:05.869Z,16.23
2018-02-25T04:25:34.123Z,21.23
2018-02-25T04:28:02.421Z,21.92
2018-02-25T04:30:29.919Z,19.73
2018-02-25T04:32:57.435Z,18.87
2018-02-25T04:35:24.953Z,22.95
2018-02-25T04:37:52.468Z,21.67
2018-02-25T04:40:19.972Z,20.42
2018-02-25T04:42:47.483Z,22.52
2018-02-25T04:45:15.008Z,21.73
2018-02-25T04:47:43.270Z,26.52
2018-02-25T04:50:10.769Z,20.12
2018-02-25T04:52:38.283Z,20.12
2018-02-25T04:55:05.803Z,17.50
2018-02-25T04:57:33.303Z,21.98
2018-02-25T05:00:00.808Z,21.85
2018-02-25T05:02:28.323Z,23.92
2018-02-25T05:04:55.831Z,22.30
2018-02-25T05:07:23.331Z,19.85
2018-02-25T05:09:50.831Z,18.92
2018-02-25T05:12:18.375Z,21.95
2018-02-25T05:14:46.639Z,25.85
2018-02-25T05:17:14.898Z,17.98
2018-02-25T05:19:42.399Z,18.62
2018-02-25T05:22:09.911Z,24.73
2018-02-25T05:24:37.411Z,27.02
2018-02-25T05:27:04.907Z,22.75
2018-02-25T05:29:32.398Z,23.50
2018-02-25T05:31:59.901Z,28.10
2018-02-25T05:34:27.411Z,25.65
2018-02-25T05:36:54.907Z,27.50
2018-02-25T05:39:22.416Z,21.35
2018-02-25T05:41:49.911Z,31.17
2018-02-25T05:44:18.188Z,42.60
2018-02-25T05:46:46.450Z,33.45
2018-02-25T05:49:14.718Z,46.13
2018-02-25T05:51:42.235Z,37.67
2018-02-25T05:54:09.747Z,29.75
2018-02-25T05:56:38.010Z,19.75
2018-02-25T05:59:05.509Z,19.92
2018-02-25T06:01:33.007Z,28.52
2018-02-25T06:04:00.504Z,27.45
2018-02-25T06:06:28.768Z,27.62
2018-02-25T06:08:57.047Z,23.55
2018-02-25T06:11:25.338Z,24.00
2018-02-25T06:13:53.606Z,21.58
2018-02-25T06:16:21.887Z,30.95
2018-02-25T06:18:50.164Z,27.27
2018-02-25T06:21:18.432Z,27.73
2018-02-25T06:23:46.705Z,31.25
2018-02-25T06:26:14.995Z,28.17
2018-02-25T06:28:43.259Z,32.13
2018-02-25T06:31:11.522Z,24.83
2018-02-25T06:33:39.027Z,33.03
2018-02-25T06:36:06.527Z,44.85
2018-02-25T06:38:34.039Z,40.00
2018-02-25T06:41:01.547Z,40.88
2018-02-25T06:43:29.095Z,31.23
2018-02-25T06:45:56.595Z,25.20
2018-02-25T06:48:24.854Z,25.45
2018-02-25T06:50:52.375Z,18.50
2018-02-25T06:53:19.876Z,19.40
2018-02-25T06:55:48.148Z,17.67
2018-02-25T06:58:15.659Z,22.48
2018-02-25T07:00:43.168Z,22.02
2018-02-25T07:03:11.435Z,21.95
2018-02-25T07:05:38.936Z,22.55
2018-02-25T07:08:06.442Z,21.33
2018-02-25T07:10:33.960Z,19.75
2018-02-25T07:13:01.469Z,23.95
2018-02-25T07:15:28.987Z,25.20
2018-02-25T07:17:56.487Z,29.75
2018-02-25T07:20:23.993Z,20.17
2018-02-25T07:22:51.507Z,19.25
2018-02-25T07:25:19.009Z,23.80
2018-02-25T07:27:46.527Z,28.50
2018-02-25T07:30:14.024Z,20.08
2018-02-25T07:32:41.534Z,27.30
2018-02-25T07:35:09.029Z,25.83
2018-02-25T07:37:36.579Z,22.05
2018-02-25T07:40:04.855Z,28.50
2018-02-25T07:42:33.135Z,25.65
2018-02-25T07:45:01.403Z,24.73
2018-02-25T07:47:29.683Z,30.48
2018-02-25T07:49:57.947Z,24.12
2018-02-25T07:52:26.211Z,25.62
2018-02-25T07:54:53.710Z,26.65
2018-02-25T07:57:21.219Z,24.23
2018-02-25T07:59:48.737Z,26.87
2018-02-25T08:02:16.272Z,29.63
2018-02-25T08:04:43.767Z,23.58
2018-02-25T08:07:11.266Z,30.95
2018-02-25T08:09:38.766Z,25.10
2018-02-25T08:12:06.266Z,24.37
2018-02-25T08:14:33.771Z,29.65
2018-02-25T08:17:01.275Z,27.70
2018-02-25T08:19:28.786Z,21.85
2018-02-25T08:21:57.046Z,29.40
2018-02-25T08:24:25.370Z,22.48
2018-02-25T08:26:52.855Z,23.85
2018-02-25T08:29:20.364Z,29.40
2018-02-25T08:31:47.911Z,20.85
2018-02-25T08:34:16.195Z,26.48
2018-02-25T08:36:43.742Z,23.95
2018-02-25T08:39:11.227Z,25.67
2018-02-25T08:41:38.742Z,23.70
2018-02-25T08:44:06.234Z,22.85
2018-02-25T08:46:33.735Z,31.95
2018-02-25T08:49:01.231Z,26.35
2018-02-25T08:51:29.537Z,27.85
2018-02-25T08:53:57.056Z,28.60
2018-02-25T08:56:24.555Z,25.70
2018-02-25T08:58:52.074Z,26.33
2018-02-25T09:01:20.368Z,22.70
2018-02-25T09:03:48.631Z,30.12
2018-02-25T09:06:16.922Z,26.90
2018-02-25T09:08:45.184Z,29.90
2018-02-25T09:11:13.444Z,24.70
2018-02-25T09:13:40.948Z,24.40
2018-02-25T09:16:08.459Z,26.67
2018-02-25T09:18:35.960Z,27.58
2018-02-25T09:21:03.816Z,26.33
2018-02-25T09:23:32.095Z,21.15
2018-02-25T09:25:59.618Z,24.85
2018-02-25T09:28:27.212Z,21.85
2018-02-25T09:30:55.477Z,25.58
2018-02-25T09:33:23.755Z,25.42
2018-02-25T09:35:52.072Z,22.73
2018-02-25T09:38:20.315Z,24.70
2018-02-25T09:40:48.583Z,25.62
2018-02-25T09:43:16.888Z,32.20
2018-02-25T09:45:44.394Z,24.15
2018-02-25T09:48:11.891Z,21.95
2018-02-25T09:50:39.395Z,25.05
2018-02-25T09:53:08.404Z,22.25
2018-02-25T09:55:35.919Z,25.77
2018-02-25T09:58:03.416Z,29.35
2018-02-25T10:00:30.930Z,24.83
2018-02-25T10:02:59.283Z,25.88
2018-02-25T10:05:26.942Z,27.40
2018-02-25T10:07:55.353Z,30.95
2018-02-25T10:10:22.953Z,30.25
2018-02-25T10:12:50.604Z,28.17
2018-02-25T10:15:18.209Z,22.87
2018-02-25T10:17:45.828Z,23.50
2018-02-25T10:20:13.434Z,27.45
2018-02-25T10:22:41.065Z,29.12
2018-02-25T10:25:09.465Z,26.25
2018-02-25T10:27:37.917Z,26.30
2018-02-25T10:30:05.480Z,23.98
2018-02-25T10:32:33.106Z,24.20
2018-02-25T10:35:00.842Z,23.40
2018-02-25T10:37:28.465Z,26.52
2018-02-25T10:39:56.074Z,31.70
2018-02-25T10:42:23.699Z,26.12
2018-02-25T10:44:52.110Z,22.65
2018-02-25T10:47:19.727Z,26.87
2018-02-25T10:49:47.377Z,25.50
2018-02-25T10:52:15.126Z,28.65
2018-02-25T10:54:42.725Z,27.75
2018-02-25T10:57:11.087Z,26.05
2018-02-25T10:59:38.674Z,24.83
2018-02-25T11:02:07.051Z,27.40
2018-02-25T11:04:35.433Z,26.87
2018-02-25T11:07:03.836Z,23.90
2018-02-25T11:09:31.414Z,27.55
2018-02-25T11:11:59.097Z,22.50
2018-02-25T11:14:26.738Z,30.90
2018-02-25T11:16:54.348Z,28.80
2018-02-25T11:19:22.709Z,28.38
2018-02-25T11:21:50.315Z,24.50
2018-02-25T11:24:17.998Z,25.48
2018-02-25T11:26:45.664Z,23.35
2018-02-25T11:29:13.272Z,24.45
2018-02-25T11:31:41.709Z,21.73
2018-02-25T11:34:10.224Z,27.98
2018-02-25T11:36:37.893Z,21.65
2018-02-25T11:39:05.479Z,20.60
2018-02-25T11:41:33.099Z,22.40
2018-02-25T11:44:00.832Z,18.75
2018-02-25T11:46:28.430Z,23.02
2018-02-25T11:48:56.059Z,22.70
2018-02-25T11:51:23.696Z,21.85
2018-02-25T11:53:51.384Z,20.20
2018-02-25T11:56:19.010Z,23.35
2018-02-25T11:58:47.402Z,20.00
2018-02-25T12:01:15.188Z,21.77
2018-02-25T12:03:42.868Z,22.87
2018-02-25T12:06:10.658Z,22.90
2018-02-25T12:08:38.884Z,23.45
2018-02-25T12:11:06.766Z,23.10
2018-02-25T12:13:34.476Z,21.17
2018-02-25T12:16:03.003Z,22.15
2018-02-25T12:18:30.664Z,23.30
2018-02-25T12:20:58.312Z,22.80
2018-02-25T12:23:26.085Z,22.02
2018-02-25T12:25:53.851Z,18.92
2018-02-25T12:28:21.543Z,24.52
2018-02-25T12:30:49.328Z,23.20
2018-02-25T12:33:17.966Z,21.52
2018-02-25T12:35:45.698Z,18.85
2018-02-25T12:38:13.371Z,25.05
2018-02-25T12:40:41.188Z,19.60
2018-02-25T12:43:08.949Z,22.08
2018-02-25T12:45:36.788Z,22.33
2018-02-25T12:48:04.437Z,19.83
2018-02-25T12:50:32.252Z,20.58
2018-02-25T12:52:59.985Z,23.70
2018-02-25T12:55:27.753Z,22.37
2018-02-25T12:57:55.634Z,17.12
2018-02-25T13:00:23.392Z,22.02
2018-02-25T13:02:51.108Z,24.50
2018-02-25T13:05:18.900Z,19.98
2018-02-25T13:07:46.597Z,16.55
2018-02-25T13:10:14.682Z,19.90
2018-02-25T13:12:42.332Z,19.92
2018-02-25T13:15:09.984Z,22.50
2018-02-25T13:17:37.663Z,20.92
2018-02-25T13:20:06.230Z,18.48
2018-02-25T13:22:33.825Z,19.75
2018-02-25T13:25:02.234Z,24.77
2018-02-25T13:27:29.877Z,18.55
2018-02-25T13:29:57.474Z,20.50
2018-02-25T13:32:25.065Z,19.65
2018-02-25T13:34:52.595Z,18.45
2018-02-25T13:37:20.086Z,18.65
2018-02-25T13:39:47.591Z,18.70
2018-02-25T13:42:15.091Z,15.57
2018-02-25T13:44:42.586Z,18.33
2018-02-25T13:47:10.848Z,17.98
2018-02-25T13:49:39.130Z,13.82
2018-02-25T13:52:06.631Z,21.27
2018-02-25T13:54:34.127Z,15.27
2018-02-25T13:57:01.659Z,16.77
2018-02-25T13:59:29.152Z,13.50
2018-02-25T14:01:57.422Z,15.52
2018-02-25T14:04:26.491Z,17.05
2018-02-25T14:06:53.998Z,15.93
2018-02-25T14:09:22.292Z,16.10
2018-02-25T14:11:50.546Z,13.55
2018-02-25T14:14:18.051Z,16.23
2018-02-25T14:16:45.568Z,13.68
2018-02-25T14:19:13.856Z,12.57
2018-02-25T14:21:42.153Z,17.58
2018-02-25T14:24:09.662Z,14.40
2018-02-25T14:26:37.259Z,15.68
2018-02-25T14:29:04.763Z,15.93
2018-02-25T14:31:33.227Z,14.70
2018-02-25T14:34:00.736Z,16.87
2018-02-25T14:36:29.007Z,15.40
2018-02-25T14:38:56.522Z,13.98
2018-02-25T14:41:24.023Z,14.70
2018-02-25T14:43:51.522Z,15.55
2018-02-25T14:46:19.069Z,15.63
2018-02-25T14:48:46.618Z,16.52
2018-02-25T14:51:14.884Z,17.65
2018-02-25T14:53:43.155Z,15.20
2018-02-25T14:56:11.446Z,16.95
2018-02-25T14:58:39.707Z,14.93
2018-02-25T15:01:07.205Z,15.68
2018-02-25T15:03:34.735Z,16.77
2018-02-25T15:06:02.991Z,15.38
2018-02-25T15:08:30.488Z,16.70
2018-02-25T15:10:57.983Z,15.70
2018-02-25T15:13:25.471Z,14.57
2018-02-25T15:15:52.982Z,17.90
2018-02-25T15:18:20.475Z,16.10
2018-02-25T15:20:47.990Z,18.50
2018-02-25T15:23:15.495Z,19.12
2018-02-25T15:25:44.353Z,16.62
2018-02-25T15:28:11.881Z,18.33
2018-02-25T15:30:39.393Z,15.45
2018-02-25T15:33:06.887Z,16.75
2018-02-25T15:35:35.163Z,17.80
2018-02-25T15:38:03.427Z,19.08
2018-02-25T15:40:31.715Z,15.35
2018-02-25T15:42:59.999Z,19.23
2018-02-25T15:45:28.272Z,18.85
2018-02-25T15:47:56.531Z,20.48
2018-02-25T15:50:24.043Z,16.52
2018-02-25T15:52:51.558Z,16.48
2018-02-25T15:55:19.831Z,18.30
2018-02-25T15:57:48.099Z,18.67
2018-02-25T16:00:15.615Z,17.45
2018-02-25T16:02:43.130Z,17.92
2018-02-25T16:05:11.395Z,19.77
2018-02-25T16:07:38.898Z,17.35
2018-02-25T16:10:06.392Z,19.12
2018-02-25T16:12:33.892Z,17.40
2018-02-25T16:15:01.402Z,14.90
2018-02-25T16:17:28.917Z,17.80
2018-02-25T16:19:56.488Z,18.37
2018-02-25T16:22:23.985Z,17.83
2018-02-25T16:24:51.496Z,18.08
2018-02-25T16:27:18.999Z,19.90
2018-02-25T16:29:46.503Z,17.25
2018-02-25T16:32:14.035Z,18.30
2018-02-25T16:34:41.553Z,20.15
2018-02-25T16:37:09.051Z,17.50
2018-02-25T16:39:36.557Z,17.15
2018-02-25T16:42:04.051Z,24.27
2018-02-25T16:44:31.573Z,20.73
2018-02-25T16:46:59.067Z,23.33
2018-02-25T16:49:26.575Z,18.92
2018-02-25T16:51:54.108Z,21.90
2018-02-25T16:54:22.399Z,20.20
2018-02-25T16:56:50.683Z,22.13
2018-02-25T16:59:18.194Z,24.77
2018-02-25T17:01:45.730Z,22.95
2018-02-25T17:04:13.232Z,21.70
2018-02-25T17:06:40.837Z,21.60
2018-02-25T17:09:08.347Z,21.60
2018-02-25T17:11:35.863Z,24.37
2018-02-25T17:14:03.383Z,23.33
2018-02-25T17:16:31.647Z,19.95
2018-02-25T17:18:59.146Z,27.02
2018-02-25T17:21:26.649Z,21.67
2018-02-25T17:23:54.156Z,19.45
2018-02-25T17:26:21.678Z,24.10
2018-02-25T17:28:49.201Z,24.65
2018-02-25T17:31:16.712Z,19.85
2018-02-25T17:33:44.988Z,25.92
2018-02-25T17:36:13.264Z,21.92
2018-02-25T17:38:41.544Z,22.52
2018-02-25T17:41:09.811Z,26.05
2018-02-25T17:43:38.123Z,25.15
2018-02-25T17:46:05.638Z,24.87
2018-02-25T17:48:33.915Z,22.80
2018-02-25T17:51:01.427Z,23.62
2018-02-25T17:53:28.931Z,23.02
2018-02-25T17:55:56.434Z,20.37
2018-02-25T17:58:24.156Z,22.13
2018-02-25T18:00:51.656Z,20.40
2018-02-25T18:03:19.173Z,18.48
2018-02-25T18:05:46.791Z,22.45
2018-02-25T18:08:14.417Z,18.40
2018-02-25T18:10:42.405Z,20.02
2018-02-25T18:13:10.068Z,21.00
2018-02-25T18:15:37.692Z,19.08
2018-02-25T18:18:06.025Z,24.25
2018-02-25T18:20:33.679Z,21.12
2018-02-25T18:23:01.302Z,25.83
2018-02-25T18:25:28.934Z,24.73
2018-02-25T18:27:56.554Z,23.42
2018-02-25T18:30:24.145Z,21.42
2018-02-25T18:32:51.751Z,21.85
2018-02-25T18:35:19.377Z,25.27
2018-02-25T18:37:46.994Z,27.50
2018-02-25T18:40:14.990Z,22.55
2018-02-25T18:42:43.451Z,23.95
2018-02-25T18:45:11.214Z,23.15
2018-02-25T18:47:38.871Z,26.27
2018-02-25T18:50:06.516Z,21.85
2018-02-25T18:52:34.222Z,21.60
2018-02-25T18:55:01.822Z,23.08
2018-02-25T18:57:30.201Z,24.20
2018-02-25T18:59:57.825Z,28.30
2018-02-25T19:02:25.445Z,19.58
2018-02-25T19:04:53.223Z,25.33
2018-02-25T19:07:20.836Z,27.30
2018-02-25T19:09:49.235Z,26.27
2018-02-25T19:12:16.854Z,19.12
2018-02-25T19:14:45.556Z,25.67
2018-02-25T19:17:14.752Z,23.85
2018-02-25T19:19:42.341Z,30.90
2018-02-25T19:22:10.854Z,24.23
2018-02-25T19:24:38.468Z,26.80
2018-02-25T19:27:06.844Z,24.70
2018-02-25T19:29:35.261Z,33.30
2018-02-25T19:32:02.878Z,27.52
2018-02-25T19:34:30.511Z,31.35
2018-02-25T19:37:03.888Z,31.85
2018-02-25T19:39:37.230Z,24.77
2018-02-25T19:42:04.885Z,28.70
2018-02-25T19:44:33.291Z,22.90
2018-02-25T19:47:00.942Z,20.80
2018-02-25T19:49:28.574Z,24.98
2018-02-25T19:51:56.319Z,23.50
2018-02-25T19:54:23.957Z,22.37
2018-02-25T19:56:51.579Z,20.25
2018-02-25T19:59:20.722Z,22.42
2018-02-25T20:01:48.394Z,22.25
2018-02-25T20:04:16.026Z,19.85
2018-02-25T20:06:43.737Z,21.83
2018-02-25T20:09:11.388Z,17.35
2018-02-25T20:11:39.148Z,20.30
2018-02-25T20:14:06.805Z,23.58
2018-02-25T20:16:34.429Z,17.20
2018-02-25T20:19:02.805Z,22.23
2018-02-25T20:21:31.216Z,22.52
2018-02-25T20:23:58.886Z,19.17
2018-02-25T20:26:26.601Z,18.62
2018-02-25T20:28:55.034Z,18.48
2018-02-25T20:31:22.664Z,20.85
2018-02-25T20:33:50.313Z,22.90
2018-02-25T20:36:18.806Z,18.67
2018-02-25T20:38:46.421Z,22.95
2018-02-25T20:41:14.059Z,18.85
2018-02-25T20:43:41.710Z,20.62
2018-02-25T20:46:09.340Z,16.10
2018-02-25T20:48:37.878Z,22.37
2018-02-25T20:51:05.492Z,19.40
2018-02-25T20:53:33.788Z,21.30
2018-02-25T20:56:01.337Z,18.70
2018-02-25T20:58:28.839Z,18.23
2018-02-25T21:00:56.368Z,21.40
2018-02-25T21:03:23.900Z,19.70
2018-02-25T21:05:52.169Z,21.23
2018-02-25T21:08:19.668Z,19.37
2018-02-25T21:10:47.189Z,22.20
2018-02-25T21:13:14.760Z,20.12
2018-02-25T21:15:43.043Z,20.02
2018-02-25T21:18:11.334Z,20.35
2018-02-25T21:20:38.865Z,21.48
2018-02-25T21:23:07.152Z,23.75
2018-02-25T21:25:35.444Z,18.33
2018-02-25T21:28:02.988Z,23.00
2018-02-25T21:30:30.517Z,26.75
2018-02-25T21:32:58.015Z,22.05
2018-02-25T21:35:25.515Z,24.00
2018-02-25T21:37:53.022Z,23.92
2018-02-25T21:40:21.295Z,21.80
2018-02-25T21:42:49.579Z,21.08
2018-02-25T21:45:17.851Z,26.58
2018-02-25T21:47:46.256Z,24.90
2018-02-25T21:50:13.775Z,23.75
2018-02-25T21:52:45.039Z,24.10
2018-02-25T21:55:13.310Z,24.70
2018-02-25T21:57:47.287Z,23.30
2018-02-25T22:00:15.559Z,21.23
2018-02-25T22:02:48.712Z,22.42
2018-02-25T22:05:16.220Z,27.95
2018-02-25T22:07:43.716Z,30.65
2018-02-25T22:10:11.239Z,27.70
2018-02-25T22:12:40.242Z,23.35
2018-02-25T22:15:07.744Z,18.80
2018-02-25T22:17:35.248Z,21.95
2018-02-25T22:20:02.756Z,20.30
2018-02-25T22:22:30.250Z,24.20
2018-02-25T22:24:57.752Z,19.80
2018-02-25T22:27:26.034Z,16.30
2018-02-25T22:29:53.586Z,20.27
2018-02-25T22:32:21.847Z,21.40
2018-02-25T22:34:50.133Z,19.67
2018-02-25T22:37:18.426Z,23.35
2018-02-25T22:39:45.931Z,24.45
2018-02-25T22:42:13.447Z,24.35
2018-02-25T22:44:40.950Z,22.45
2018-02-25T22:47:08.451Z,23.20
2018-02-25T22:49:36.748Z,21.33
2018-02-25T22:52:04.253Z,23.55
2018-02-25T22:54:31.759Z,20.58
2018-02-25T22:56:59.255Z,19.80
2018-02-25T22:59:26.750Z,26.08
2018-02-25T23:01:55.020Z,22.35
2018-02-25T23:04:23.287Z,25.65
2018-02-25T23:06:50.794Z,22.75
2018-02-25T23:09:18.299Z,22.75
2018-02-25T23:11:45.913Z,23.35
2018-02-25T23:14:13.414Z,24.45
2018-02-25T23:16:40.925Z,21.30
2018-02-25T23:19:08.427Z,21.67
2018-02-25T23:21:35.944Z,21.35
2018-02-25T23:24:03.556Z,26.67
2018-02-25T23:26:32.203Z,23.15
2018-02-25T23:28:59.965Z,21.80
2018-02-25T23:31:27.487Z,22.48
2018-02-25T23:33:55.752Z,25.75
2018-02-25T23:36:24.018Z,19.08
2018-02-25T23:38:51.514Z,24.48
2018-02-25T23:41:19.011Z,16.85
2018-02-25T23:43:46.515Z,23.70
2018-02-25T23:46:14.780Z,18.17
2018-02-25T23:48:43.055Z,23.30
2018-02-25T23:51:11.326Z,25.40
2018-02-25T23:53:38.832Z,23.00
2018-02-25T23:56:06.336Z,20.67
2018-02-25T23:58:33.842Z,22.02
